Time;durP1;ratioP1;P1;durP2;ratioP2;P2;SDS_P1;SDS_P2;PMS_P1;PMS_P2;Temp;Humidity;BMP_temperature;BMP_pressure;BME280_temperature;BME280_humidity;BME280_pressure;Samples;Min_cycle;Max_cycle;Signal;HPM_P1;HPM_P2
2023/01/09 00:01:51;;;;;;;2.60;0.90;;;;;;;;;;4920017;29;20322;-63
2023/01/09 00:04:16;;;;;;;1.42;0.60;;;;;;;;;;4922129;29;20283;-63
2023/01/09 00:06:45;;;;;;;1.88;0.70;;;;;;;;;;4928742;29;20254;-63
2023/01/09 00:09:10;;;;;;;2.15;0.70;;;;;;;;;;4927413;29;20250;-63
2023/01/09 00:11:36;;;;;;;1.27;0.60;;;;;;;;;;4948284;28;20239;-63
2023/01/09 00:14:01;;;;;;;1.73;0.60;;;;;;;;;;4955432;28;20212;-63
2023/01/09 00:16:26;;;;;;;2.97;0.77;;;;;;;;;;4956606;28;20241;-63
2023/01/09 00:18:52;;;;;;;0.52;0.43;;;;;;;;;;4955840;28;20222;-63
2023/01/09 00:21:17;;;;;;;1.23;0.70;;;;;;;;;;4954887;28;20289;-63
2023/01/09 00:23:42;;;;;;;1.23;0.68;;;;;;;;;;4956233;28;20640;-63
2023/01/09 00:26:09;;;;;;;1.70;0.65;;;;;;;;;;4955267;28;20218;-63
2023/01/09 00:28:34;;;;;;;1.08;0.65;;;;;;;;;;4955861;28;20230;-63
2023/01/09 00:31:00;;;;;;;1.92;0.60;;;;;;;;;;4956189;28;20218;-63
2023/01/09 00:33:27;;;;;;;1.80;0.68;;;;;;;;;;4955184;28;20588;-63
2023/01/09 00:35:53;;;;;;;0.80;0.50;;;;;;;;;;4956161;28;20237;-63
2023/01/09 00:38:18;;;;;;;0.77;0.50;;;;;;;;;;4955628;28;20211;-63
2023/01/09 00:40:43;;;;;;;1.48;0.60;;;;;;;;;;4955409;28;20293;-63
2023/01/09 00:43:08;;;;;;;1.15;0.52;;;;;;;;;;4938263;29;20242;-63
2023/01/09 00:45:34;;;;;;;1.42;0.70;;;;;;;;;;4937018;29;20247;-63
2023/01/09 00:48:01;;;;;;;0.70;0.30;;;;;;;;;;4936241;29;20225;-63
2023/01/09 00:50:29;;;;;;;1.45;0.40;;;;;;;;;;4936534;29;20282;-63
2023/01/09 00:52:55;;;;;;;1.27;0.50;;;;;;;;;;4936614;28;20223;-63
2023/01/09 00:55:20;;;;;;;0.65;0.40;;;;;;;;;;4935403;28;20222;-63
2023/01/09 00:57:45;;;;;;;0.80;0.38;;;;;;;;;;4936314;28;20255;-63
2023/01/09 01:00:11;;;;;;;0.88;0.43;;;;;;;;;;4935892;28;20640;-64
2023/01/09 01:02:36;;;;;;;0.55;0.30;;;;;;;;;;4930616;28;20225;-63
2023/01/09 01:07:45;;;;;;;0.82;0.43;;;;;;;;;;4907611;29;20311;-62
2023/01/09 01:10:12;;;;;;;1.63;0.40;;;;;;;;;;4907094;29;20314;-63
2023/01/09 01:12:37;;;;;;;0.52;0.40;;;;;;;;;;4903846;29;20317;-63
2023/01/09 01:15:03;;;;;;;0.55;0.32;;;;;;;;;;4899357;29;20246;-63
2023/01/09 01:17:28;;;;;;;1.50;0.50;;;;;;;;;;4918315;28;20802;-62
2023/01/09 01:19:54;;;;;;;0.82;0.32;;;;;;;;;;4922665;28;20266;-62
2023/01/09 01:22:19;;;;;;;1.05;0.40;;;;;;;;;;4925301;28;20628;-62
2023/01/09 01:24:44;;;;;;;0.40;0.30;;;;;;;;;;4926063;28;20223;-62
2023/01/09 01:27:10;;;;;;;0.88;0.47;;;;;;;;;;4926073;28;20215;-63
2023/01/09 01:29:35;;;;;;;1.20;0.47;;;;;;;;;;4925951;28;20594;-62
2023/01/09 01:32:00;;;;;;;0.73;0.40;;;;;;;;;;4925427;28;20580;-63
2023/01/09 01:34:27;;;;;;;0.98;0.52;;;;;;;;;;4924840;28;20234;-62
2023/01/09 01:36:52;;;;;;;0.83;0.40;;;;;;;;;;4918257;28;20246;-62
2023/01/09 01:39:17;;;;;;;0.93;0.50;;;;;;;;;;4918148;28;20735;-62
2023/01/09 01:41:43;;;;;;;0.93;0.40;;;;;;;;;;4908597;28;20231;-62
2023/01/09 01:44:27;;;;;;;0.82;0.35;;;;;;;;;;4905882;29;20219;-63
2023/01/09 01:46:52;;;;;;;1.05;0.52;;;;;;;;;;4907209;29;20228;-62
2023/01/09 01:49:19;;;;;;;0.98;0.45;;;;;;;;;;4924487;28;20219;-63
2023/01/09 01:51:45;;;;;;;1.85;0.50;;;;;;;;;;4914950;28;20219;-62
2023/01/09 01:54:14;;;;;;;1.33;0.50;;;;;;;;;;4904468;29;20223;-62
2023/01/09 01:56:41;;;;;;;1.08;0.60;;;;;;;;;;4924241;28;20253;-62
2023/01/09 01:59:09;;;;;;;1.33;0.65;;;;;;;;;;4899774;28;20247;-63
2023/01/09 02:01:37;;;;;;;1.98;0.70;;;;;;;;;;4916463;28;20219;-62
2023/01/09 02:04:02;;;;;;;1.00;0.60;;;;;;;;;;4924420;28;20757;-62
2023/01/09 02:06:28;;;;;;;1.57;0.87;;;;;;;;;;4928190;28;20749;-62
2023/01/09 02:08:53;;;;;;;1.85;0.80;;;;;;;;;;4953462;28;20631;-63
2023/01/09 02:11:18;;;;;;;3.22;0.70;;;;;;;;;;4938309;29;20591;-62
2023/01/09 02:13:44;;;;;;;2.60;0.80;;;;;;;;;;4934198;29;20217;-63
2023/01/09 02:16:19;;;;;;;1.20;0.70;;;;;;;;;;4932506;29;20558;-63
2023/01/09 02:18:51;;;;;;;1.60;0.70;;;;;;;;;;4932836;29;20223;-63
2023/01/09 02:21:30;;;;;;;1.08;0.60;;;;;;;;;;4933586;29;20215;-63
2023/01/09 02:24:03;;;;;;;1.40;0.77;;;;;;;;;;4935321;29;20211;-63
2023/01/09 02:26:33;;;;;;;1.97;0.93;;;;;;;;;;4933140;29;20222;-63
2023/01/09 02:29:13;;;;;;;0.90;0.70;;;;;;;;;;4934949;29;20222;-62
2023/01/09 02:31:45;;;;;;;3.75;1.20;;;;;;;;;;4933757;29;20629;-63
2023/01/09 02:34:12;;;;;;;2.05;0.90;;;;;;;;;;4933655;29;20342;-62
2023/01/09 02:36:46;;;;;;;1.73;0.85;;;;;;;;;;4916161;29;20242;-63
2023/01/09 02:39:11;;;;;;;1.98;1.00;;;;;;;;;;4898076;29;20637;-62
2023/01/09 02:41:37;;;;;;;1.67;0.82;;;;;;;;;;4905771;29;20704;-62
2023/01/09 02:44:15;;;;;;;1.35;0.60;;;;;;;;;;4890719;29;20235;-62
2023/01/09 02:46:40;;;;;;;1.35;0.70;;;;;;;;;;4910049;29;20235;-62
2023/01/09 02:49:06;;;;;;;1.42;0.70;;;;;;;;;;4910044;29;20208;-63
2023/01/09 02:51:48;;;;;;;1.63;0.87;;;;;;;;;;4910659;29;20234;-63
2023/01/09 02:54:14;;;;;;;1.77;0.70;;;;;;;;;;4910792;29;20219;-62
2023/01/09 02:56:51;;;;;;;3.03;0.90;;;;;;;;;;4924991;29;20286;-62
2023/01/09 02:59:20;;;;;;;1.98;0.80;;;;;;;;;;4900541;29;20208;-63
2023/01/09 03:01:50;;;;;;;2.40;0.77;;;;;;;;;;4891267;29;20274;-63
2023/01/09 03:04:22;;;;;;;2.17;0.90;;;;;;;;;;4895780;29;20223;-63
2023/01/09 03:06:53;;;;;;;1.88;0.70;;;;;;;;;;4911064;29;20251;-63
2023/01/09 03:09:21;;;;;;;1.77;0.80;;;;;;;;;;4909190;29;20231;-63
2023/01/09 03:11:47;;;;;;;3.13;0.80;;;;;;;;;;4893806;29;20306;-63
2023/01/09 03:14:14;;;;;;;2.45;0.80;;;;;;;;;;4891752;29;20247;-63
2023/01/09 03:16:40;;;;;;;3.13;1.00;;;;;;;;;;4910160;29;20220;-63
2023/01/09 03:19:07;;;;;;;2.93;0.90;;;;;;;;;;4906301;29;20219;-63
2023/01/09 03:21:32;;;;;;;2.90;0.83;;;;;;;;;;4920207;29;20215;-63
2023/01/09 03:23:58;;;;;;;1.75;0.90;;;;;;;;;;4921050;29;20227;-63
2023/01/09 03:26:23;;;;;;;1.83;0.80;;;;;;;;;;4923644;29;20252;-63
2023/01/09 03:28:49;;;;;;;3.80;1.00;;;;;;;;;;4927733;29;20245;-63
2023/01/09 03:31:14;;;;;;;3.28;1.10;;;;;;;;;;4911378;29;20230;-63
2023/01/09 03:33:39;;;;;;;2.72;1.08;;;;;;;;;;4928585;29;20211;-63
2023/01/09 03:36:05;;;;;;;1.75;0.80;;;;;;;;;;4941024;28;20612;-63
2023/01/09 03:38:30;;;;;;;2.33;1.00;;;;;;;;;;4947591;28;20245;-63
2023/01/09 03:40:56;;;;;;;1.95;1.10;;;;;;;;;;4941436;28;20346;-63
2023/01/09 03:43:21;;;;;;;2.72;1.00;;;;;;;;;;4919347;29;20318;-63
2023/01/09 03:45:46;;;;;;;2.97;1.25;;;;;;;;;;4920970;29;20275;-63
2023/01/09 03:48:11;;;;;;;2.03;1.00;;;;;;;;;;4939544;28;20215;-63
2023/01/09 03:50:37;;;;;;;3.83;1.27;;;;;;;;;;4946066;28;20223;-63
2023/01/09 03:53:02;;;;;;;2.65;1.08;;;;;;;;;;4928246;29;20250;-63
2023/01/09 03:55:27;;;;;;;2.33;1.10;;;;;;;;;;4927292;29;20223;-63
2023/01/09 03:57:53;;;;;;;1.90;1.08;;;;;;;;;;4926193;29;20223;-63
2023/01/09 04:00:18;;;;;;;3.25;1.00;;;;;;;;;;4927204;29;20665;-63
2023/01/09 04:02:44;;;;;;;1.73;0.87;;;;;;;;;;4930787;29;20771;-63
2023/01/09 04:05:09;;;;;;;2.33;1.00;;;;;;;;;;4933541;29;20238;-63
2023/01/09 04:07:34;;;;;;;3.70;0.90;;;;;;;;;;4955563;28;20218;-63
2023/01/09 04:10:00;;;;;;;2.90;1.10;;;;;;;;;;4954045;28;20713;-63
2023/01/09 04:12:25;;;;;;;3.80;1.13;;;;;;;;;;4934929;29;20307;-63
2023/01/09 04:14:50;;;;;;;2.10;0.80;;;;;;;;;;4936666;29;20215;-63
2023/01/09 04:17:15;;;;;;;1.88;0.90;;;;;;;;;;4935816;29;20222;-63
2023/01/09 04:19:41;;;;;;;2.55;1.15;;;;;;;;;;4935997;29;20223;-63
2023/01/09 04:22:06;;;;;;;4.27;1.10;;;;;;;;;;4932894;28;20215;-63
2023/01/09 04:24:31;;;;;;;2.07;0.97;;;;;;;;;;4923459;29;20263;-63
2023/01/09 04:26:57;;;;;;;2.77;1.00;;;;;;;;;;4916632;28;20266;-63
2023/01/09 04:29:22;;;;;;;1.50;0.90;;;;;;;;;;4918814;29;20223;-63
2023/01/09 04:31:47;;;;;;;2.25;1.10;;;;;;;;;;4922496;29;20848;-63
2023/01/09 04:34:13;;;;;;;3.10;1.10;;;;;;;;;;4927393;29;20222;-64
2023/01/09 04:36:38;;;;;;;3.47;1.20;;;;;;;;;;4926811;29;20710;-63
2023/01/09 04:39:04;;;;;;;1.97;1.00;;;;;;;;;;4925050;29;20219;-63
2023/01/09 04:44:14;;;;;;;2.67;1.10;;;;;;;;;;4925212;29;20290;-65
2023/01/09 04:46:39;;;;;;;3.85;1.35;;;;;;;;;;4941114;28;20222;-65
2023/01/09 04:49:04;;;;;;;4.07;1.40;;;;;;;;;;4937880;28;20380;-65
2023/01/09 04:51:30;;;;;;;3.73;1.10;;;;;;;;;;4930146;28;20414;-65
2023/01/09 04:53:55;;;;;;;5.22;1.50;;;;;;;;;;4920501;29;20577;-65
2023/01/09 04:56:20;;;;;;;3.23;1.20;;;;;;;;;;4925805;29;20215;-65
2023/01/09 04:58:46;;;;;;;3.95;1.30;;;;;;;;;;4926645;29;20246;-65
2023/01/09 05:01:11;;;;;;;4.13;1.30;;;;;;;;;;4926392;29;20223;-65
2023/01/09 05:03:36;;;;;;;3.33;1.30;;;;;;;;;;4927038;29;20576;-65
2023/01/09 05:06:02;;;;;;;3.22;1.20;;;;;;;;;;4926248;29;20301;-65
2023/01/09 05:08:27;;;;;;;3.95;1.33;;;;;;;;;;4925401;29;20710;-65
2023/01/09 05:10:52;;;;;;;4.07;1.23;;;;;;;;;;4919360;29;20226;-65
2023/01/09 05:13:18;;;;;;;3.03;1.48;;;;;;;;;;4918547;29;20269;-65
2023/01/09 05:15:43;;;;;;;2.97;1.30;;;;;;;;;;4919111;29;20373;-65
2023/01/09 05:18:08;;;;;;;4.70;1.40;;;;;;;;;;4926787;29;20215;-65
2023/01/09 05:20:33;;;;;;;4.53;1.40;;;;;;;;;;4926511;28;20230;-65
2023/01/09 05:22:59;;;;;;;2.97;1.20;;;;;;;;;;4926132;29;20679;-65
2023/01/09 05:25:24;;;;;;;2.67;1.03;;;;;;;;;;4926096;29;20218;-65
2023/01/09 05:27:49;;;;;;;2.63;1.10;;;;;;;;;;4926182;29;20816;-65
2023/01/09 05:30:15;;;;;;;3.70;1.13;;;;;;;;;;4925915;29;20226;-65
2023/01/09 05:32:40;;;;;;;3.03;1.10;;;;;;;;;;4921412;29;20219;-65
2023/01/09 05:35:06;;;;;;;3.37;0.93;;;;;;;;;;4917190;29;20243;-65
2023/01/09 05:37:31;;;;;;;3.45;1.38;;;;;;;;;;4918737;29;20898;-65
2023/01/09 05:39:56;;;;;;;4.23;1.30;;;;;;;;;;4924478;29;20238;-65
2023/01/09 05:42:22;;;;;;;2.13;1.00;;;;;;;;;;4925580;29;20223;-65
2023/01/09 05:44:47;;;;;;;3.27;1.17;;;;;;;;;;4926208;29;21067;-65
2023/01/09 05:47:12;;;;;;;4.33;1.20;;;;;;;;;;4926306;29;20250;-65
2023/01/09 05:49:38;;;;;;;2.67;1.00;;;;;;;;;;4925497;29;20608;-65
2023/01/09 05:52:03;;;;;;;2.30;0.93;;;;;;;;;;4925724;29;20227;-65
2023/01/09 05:54:29;;;;;;;3.13;1.10;;;;;;;;;;4922846;29;20286;-65
2023/01/09 05:56:54;;;;;;;2.10;0.90;;;;;;;;;;4917938;29;20231;-65
2023/01/09 05:59:19;;;;;;;3.27;0.90;;;;;;;;;;4918242;29;20306;-65
2023/01/09 06:01:45;;;;;;;2.93;1.30;;;;;;;;;;4921030;29;21108;-65
2023/01/09 06:04:10;;;;;;;2.50;1.03;;;;;;;;;;4925239;29;20231;-65
2023/01/09 06:06:35;;;;;;;4.50;1.10;;;;;;;;;;4926339;29;20257;-65
2023/01/09 06:09:02;;;;;;;4.07;1.20;;;;;;;;;;4926004;29;20325;-66
2023/01/09 06:11:27;;;;;;;2.40;1.00;;;;;;;;;;4925041;29;20274;-65
2023/01/09 06:13:52;;;;;;;3.80;1.17;;;;;;;;;;4926377;29;20226;-65
2023/01/09 06:16:18;;;;;;;2.70;1.00;;;;;;;;;;4924507;29;20275;-65
2023/01/09 06:18:43;;;;;;;3.87;1.20;;;;;;;;;;4916771;29;20698;-65
2023/01/09 06:21:08;;;;;;;4.00;1.20;;;;;;;;;;4917600;29;20211;-65
2023/01/09 06:23:34;;;;;;;4.13;0.90;;;;;;;;;;4918434;29;20660;-65
2023/01/09 06:25:59;;;;;;;4.17;1.00;;;;;;;;;;4924662;29;20222;-65
2023/01/09 06:28:24;;;;;;;5.00;1.10;;;;;;;;;;4925367;29;20219;-65
2023/01/09 06:30:50;;;;;;;4.77;1.03;;;;;;;;;;4925715;29;20639;-65
2023/01/09 06:33:16;;;;;;;6.00;1.20;;;;;;;;;;4924474;29;20322;-65
2023/01/09 06:35:41;;;;;;;5.50;1.30;;;;;;;;;;4925829;29;20390;-66
2023/01/09 06:38:06;;;;;;;4.95;1.20;;;;;;;;;;4924478;29;20211;-65
2023/01/09 06:40:32;;;;;;;7.17;1.60;;;;;;;;;;4920268;29;20229;-65
2023/01/09 06:42:57;;;;;;;3.45;1.20;;;;;;;;;;4914863;28;20227;-65
2023/01/09 06:45:22;;;;;;;4.13;1.10;;;;;;;;;;4935510;28;20312;-65
2023/01/09 06:47:48;;;;;;;3.00;1.20;;;;;;;;;;4942148;28;20615;-65
2023/01/09 06:50:15;;;;;;;4.10;1.50;;;;;;;;;;4943934;28;20584;-65
2023/01/09 06:52:40;;;;;;;2.65;1.10;;;;;;;;;;4926861;29;20238;-65
2023/01/09 06:55:06;;;;;;;3.80;1.20;;;;;;;;;;4925086;29;20334;-65
2023/01/09 06:57:31;;;;;;;3.45;1.02;;;;;;;;;;4925591;29;20233;-65
2023/01/09 06:59:57;;;;;;;4.45;1.10;;;;;;;;;;4924747;29;20354;-65
2023/01/09 07:02:22;;;;;;;2.30;1.00;;;;;;;;;;4921596;29;20613;-65
2023/01/09 07:04:47;;;;;;;6.30;1.40;;;;;;;;;;4918273;29;20238;-65
2023/01/09 07:07:13;;;;;;;5.30;1.33;;;;;;;;;;4916789;29;20608;-65
2023/01/09 07:09:38;;;;;;;4.50;1.30;;;;;;;;;;4921312;29;20338;-65
2023/01/09 07:12:03;;;;;;;4.07;1.33;;;;;;;;;;4924427;29;20218;-66
2023/01/09 07:14:29;;;;;;;4.63;1.40;;;;;;;;;;4924767;29;20581;-65
2023/01/09 07:16:54;;;;;;;3.77;1.30;;;;;;;;;;4925379;29;20718;-65
2023/01/09 07:19:19;;;;;;;3.78;1.33;;;;;;;;;;4925386;29;20207;-65
2023/01/09 07:21:45;;;;;;;4.87;1.30;;;;;;;;;;4943083;28;20265;-65
2023/01/09 07:24:10;;;;;;;7.22;2.00;;;;;;;;;;4942883;28;20222;-65
2023/01/09 07:26:35;;;;;;;5.60;1.73;;;;;;;;;;4936262;28;20241;-65
2023/01/09 07:29:01;;;;;;;5.77;1.50;;;;;;;;;;4935026;28;20706;-67
2023/01/09 07:31:26;;;;;;;3.37;1.23;;;;;;;;;;4939063;28;20226;-69
2023/01/09 07:33:51;;;;;;;3.40;1.10;;;;;;;;;;4946411;28;20214;-66
2023/01/09 07:36:17;;;;;;;6.23;1.60;;;;;;;;;;4945251;28;20285;-66
2023/01/09 07:38:42;;;;;;;4.10;1.30;;;;;;;;;;4945632;28;20435;-68
2023/01/09 07:41:07;;;;;;;4.93;1.30;;;;;;;;;;4939244;28;20219;-68
2023/01/09 07:43:32;;;;;;;4.50;1.27;;;;;;;;;;4927197;29;20647;-67
2023/01/09 07:45:58;;;;;;;3.67;1.13;;;;;;;;;;4928489;29;20317;-67
2023/01/09 07:48:23;;;;;;;5.60;1.50;;;;;;;;;;4922854;29;20217;-67
2023/01/09 07:50:48;;;;;;;7.17;1.97;;;;;;;;;;4921157;29;20470;-67
2023/01/09 07:53:14;;;;;;;5.87;1.13;;;;;;;;;;4920457;29;20215;-67
2023/01/09 07:55:41;;;;;;;4.23;1.37;;;;;;;;;;4925191;29;20208;-67
2023/01/09 07:58:06;;;;;;;3.67;1.20;;;;;;;;;;4926777;29;20208;-68
2023/01/09 08:00:31;;;;;;;6.90;1.60;;;;;;;;;;4940101;28;20217;-68
2023/01/09 08:02:56;;;;;;;6.37;1.63;;;;;;;;;;4950228;28;20277;-71
2023/01/09 08:05:22;;;;;;;4.13;1.50;;;;;;;;;;4956025;28;20673;-69
2023/01/09 08:07:49;;;;;;;7.47;1.60;;;;;;;;;;4952869;28;20243;-68
2023/01/09 08:10:14;;;;;;;5.03;1.30;;;;;;;;;;4944748;28;20203;-68
2023/01/09 08:12:41;;;;;;;4.70;1.37;;;;;;;;;;4946224;28;20210;-69
2023/01/09 08:15:07;;;;;;;5.30;1.50;;;;;;;;;;4943041;28;20745;-70
2023/01/09 08:17:32;;;;;;;5.30;1.43;;;;;;;;;;4942585;28;20219;-67
2023/01/09 08:19:57;;;;;;;5.47;1.20;;;;;;;;;;4945443;28;20709;-67
2023/01/09 08:22:23;;;;;;;4.93;1.30;;;;;;;;;;4945123;28;20723;-66
2023/01/09 08:24:48;;;;;;;3.00;1.27;;;;;;;;;;4928175;29;20218;-69
2023/01/09 08:27:13;;;;;;;4.90;1.38;;;;;;;;;;4943871;29;20204;-69
2023/01/09 08:29:38;;;;;;;3.22;1.20;;;;;;;;;;4944742;28;20222;-69
2023/01/09 08:32:04;;;;;;;4.20;1.30;;;;;;;;;;4947022;28;20685;-69
2023/01/09 08:34:31;;;;;;;3.93;1.20;;;;;;;;;;4956053;28;20690;-68
2023/01/09 08:36:57;;;;;;;2.60;0.90;;;;;;;;;;4956212;28;20228;-70
2023/01/09 08:39:22;;;;;;;4.03;1.27;;;;;;;;;;4954720;28;20662;-68
2023/01/09 08:47:16;;;;;;;5.73;1.60;;;;;;;;;;4951759;28;20229;-66
2023/01/09 08:49:41;;;;;;;4.43;1.70;;;;;;;;;;4935363;29;20227;-68
2023/01/09 08:52:07;;;;;;;4.47;1.57;;;;;;;;;;4934841;28;20687;-67
2023/01/09 08:54:32;;;;;;;4.82;1.52;;;;;;;;;;4936545;28;20219;-67
2023/01/09 08:56:58;;;;;;;4.60;2.07;;;;;;;;;;4936065;28;20227;-68
2023/01/09 08:59:23;;;;;;;4.07;1.55;;;;;;;;;;4935133;28;20630;-67
2023/01/09 09:01:48;;;;;;;4.50;1.60;;;;;;;;;;4945313;29;20217;-67
2023/01/09 09:04:14;;;;;;;4.07;1.70;;;;;;;;;;4953070;28;20265;-67
2023/01/09 09:06:39;;;;;;;3.95;1.48;;;;;;;;;;4954704;28;20229;-68
2023/01/09 09:09:05;;;;;;;3.10;1.53;;;;;;;;;;4954851;28;20749;-67
2023/01/09 09:11:32;;;;;;;4.28;1.50;;;;;;;;;;4955128;28;20215;-68
2023/01/09 09:13:57;;;;;;;3.13;1.35;;;;;;;;;;4951846;29;20214;-68
2023/01/09 09:16:23;;;;;;;3.93;1.50;;;;;;;;;;4954939;29;20207;-68
2023/01/09 09:18:48;;;;;;;3.53;1.63;;;;;;;;;;4955341;29;20225;-68
2023/01/09 09:21:13;;;;;;;3.05;1.30;;;;;;;;;;4953847;29;20249;-68
2023/01/09 09:23:39;;;;;;;3.67;1.30;;;;;;;;;;4955185;29;20237;-68
2023/01/09 09:26:04;;;;;;;3.63;1.33;;;;;;;;;;4954353;29;20243;-68
2023/01/09 09:28:29;;;;;;;3.00;1.50;;;;;;;;;;4954394;29;20670;-68
2023/01/09 09:30:55;;;;;;;3.20;1.37;;;;;;;;;;4955142;29;20635;-68
2023/01/09 09:33:20;;;;;;;2.83;1.30;;;;;;;;;;4954538;29;20225;-68
2023/01/09 09:35:45;;;;;;;4.03;1.47;;;;;;;;;;4954074;29;20230;-68
2023/01/09 09:38:12;;;;;;;4.37;1.70;;;;;;;;;;4954538;29;20284;-68
2023/01/09 09:40:37;;;;;;;3.93;1.87;;;;;;;;;;4951702;29;20689;-68
2023/01/09 09:46:19;;;;;;;3.07;1.53;;;;;;;;;;4920925;29;20229;-68
2023/01/09 09:48:47;;;;;;;2.33;1.42;;;;;;;;;;4935098;29;20223;-68
2023/01/09 09:51:22;;;;;;;2.80;1.57;;;;;;;;;;4921914;29;20203;-68
2023/01/09 09:53:53;;;;;;;3.53;1.30;;;;;;;;;;4918468;29;20226;-68
2023/01/09 09:56:19;;;;;;;3.33;1.38;;;;;;;;;;4934012;29;20762;-68
2023/01/09 09:58:45;;;;;;;2.70;1.50;;;;;;;;;;4918447;29;20298;-68
2023/01/09 10:01:13;;;;;;;3.67;1.30;;;;;;;;;;4917966;29;20222;-68
2023/01/09 10:03:39;;;;;;;2.83;1.10;;;;;;;;;;4934616;28;20226;-69
2023/01/09 10:06:09;;;;;;;3.60;1.23;;;;;;;;;;4935225;28;20682;-68
2023/01/09 10:08:40;;;;;;;2.65;1.20;;;;;;;;;;4953349;29;20331;-68
2023/01/09 10:11:07;;;;;;;5.75;1.60;;;;;;;;;;4953184;28;20222;-67
2023/01/09 10:16:21;;;;;;;4.50;1.38;;;;;;;;;;4934151;28;20226;-67
2023/01/09 10:18:51;;;;;;;4.90;1.40;;;;;;;;;;4934108;29;20278;-68
2023/01/09 10:21:18;;;;;;;3.92;1.60;;;;;;;;;;4933544;28;20687;-68
2023/01/09 10:23:57;;;;;;;4.65;1.50;;;;;;;;;;4934723;28;20230;-68
2023/01/09 10:26:31;;;;;;;4.90;1.50;;;;;;;;;;4934489;28;20215;-68
2023/01/09 10:29:07;;;;;;;4.45;1.50;;;;;;;;;;4933916;29;20230;-68
2023/01/09 10:31:43;;;;;;;7.20;2.90;;;;;;;;;;4921843;29;20641;-68
2023/01/09 10:34:29;;;;;;;5.70;1.80;;;;;;;;;;4914562;29;20220;-68
2023/01/09 10:36:58;;;;;;;5.18;2.20;;;;;;;;;;4914798;29;20227;-68
2023/01/09 10:39:25;;;;;;;5.47;1.88;;;;;;;;;;4913391;29;20208;-68
2023/01/09 10:41:59;;;;;;;4.07;2.00;;;;;;;;;;4917962;29;20749;-68
2023/01/09 10:44:26;;;;;;;5.30;2.42;;;;;;;;;;4916318;29;20229;-68
2023/01/09 10:46:52;;;;;;;6.03;2.30;;;;;;;;;;4917994;29;20218;-68
2023/01/09 10:49:17;;;;;;;7.40;2.40;;;;;;;;;;4934051;29;20207;-69
2023/01/09 10:51:50;;;;;;;3.97;1.83;;;;;;;;;;4921135;29;20235;-70
2023/01/09 10:54:17;;;;;;;4.57;1.60;;;;;;;;;;4911780;29;20431;-71
2023/01/09 10:56:45;;;;;;;4.97;1.80;;;;;;;;;;4928033;29;20221;-71
2023/01/09 10:59:10;;;;;;;4.25;1.50;;;;;;;;;;4934185;29;20225;-71
2023/01/09 11:01:37;;;;;;;2.42;1.38;;;;;;;;;;4934828;29;20214;-71
2023/01/09 11:04:08;;;;;;;6.10;1.67;;;;;;;;;;4917378;29;20728;-70
2023/01/09 11:06:36;;;;;;;4.82;1.30;;;;;;;;;;4917400;29;20777;-70
2023/01/09 11:09:01;;;;;;;5.00;1.63;;;;;;;;;;4908181;29;20222;-70
2023/01/09 11:11:31;;;;;;;2.75;1.20;;;;;;;;;;4918593;29;20220;-71
2023/01/09 11:14:08;;;;;;;5.17;1.90;;;;;;;;;;4948155;29;20338;-70
2023/01/09 11:16:33;;;;;;;4.03;1.50;;;;;;;;;;4951007;29;20276;-71
2023/01/09 11:18:59;;;;;;;4.03;1.42;;;;;;;;;;4940370;29;20681;-71
2023/01/09 11:21:31;;;;;;;2.65;1.45;;;;;;;;;;4939360;29;20218;-70
2023/01/09 11:24:16;;;;;;;4.20;1.40;;;;;;;;;;4957291;29;20230;-70
2023/01/09 11:26:42;;;;;;;4.30;1.30;;;;;;;;;;4947356;29;20260;-71
2023/01/09 11:29:10;;;;;;;3.03;1.33;;;;;;;;;;4929721;28;20650;-70
2023/01/09 11:31:35;;;;;;;3.70;1.20;;;;;;;;;;4957031;28;20297;-71
2023/01/09 11:34:00;;;;;;;3.47;1.30;;;;;;;;;;4955107;28;20298;-68
2023/01/09 11:36:25;;;;;;;3.03;1.23;;;;;;;;;;4947805;28;20265;-70
2023/01/09 11:38:52;;;;;;;2.70;1.20;;;;;;;;;;4938084;29;20223;-71
2023/01/09 11:41:18;;;;;;;3.72;1.27;;;;;;;;;;4936392;29;20207;-71
2023/01/09 11:43:44;;;;;;;2.90;1.10;;;;;;;;;;4937830;28;20231;-70
2023/01/09 11:46:10;;;;;;;2.87;1.30;;;;;;;;;;4918726;28;20302;-70
2023/01/09 11:48:35;;;;;;;2.75;1.02;;;;;;;;;;4928337;29;20584;-70
2023/01/09 11:51:02;;;;;;;2.80;1.15;;;;;;;;;;4941784;28;20203;-70
2023/01/09 11:53:27;;;;;;;4.82;1.20;;;;;;;;;;4937674;28;20671;-71
2023/01/09 11:55:58;;;;;;;3.33;1.25;;;;;;;;;;4915140;29;20219;-71
2023/01/09 11:58:23;;;;;;;2.35;1.10;;;;;;;;;;4920110;28;20207;-71
2023/01/09 12:00:49;;;;;;;2.05;0.63;;;;;;;;;;4933769;28;20582;-71
2023/01/09 12:03:25;;;;;;;2.40;0.70;;;;;;;;;;4932573;28;20235;-71
2023/01/09 12:05:54;;;;;;;2.15;0.65;;;;;;;;;;4956642;28;20800;-71
2023/01/09 12:08:19;;;;;;;1.35;0.60;;;;;;;;;;4920777;28;20353;-71
2023/01/09 12:10:48;;;;;;;14.45;9.45;;;;;;;;;;4936278;28;20251;-71
2023/01/09 12:13:28;;;;;;;18.25;14.43;;;;;;;;;;4935036;28;20306;-71
2023/01/09 12:15:55;;;;;;;9.43;7.05;;;;;;;;;;4954843;28;20249;-71
2023/01/09 12:18:31;;;;;;;3.38;1.13;;;;;;;;;;4954440;28;20283;-71
2023/01/09 12:21:06;;;;;;;3.40;1.00;;;;;;;;;;4931298;29;20214;-71
2023/01/09 12:23:33;;;;;;;5.20;1.20;;;;;;;;;;4955275;28;20591;-71
2023/01/09 12:25:59;;;;;;;4.45;1.40;;;;;;;;;;4955937;28;20229;-71
2023/01/09 12:28:27;;;;;;;3.58;1.30;;;;;;;;;;4953002;28;20261;-72
2023/01/09 12:30:56;;;;;;;5.30;1.48;;;;;;;;;;4949642;28;20218;-70
2023/01/09 12:33:25;;;;;;;3.72;1.40;;;;;;;;;;4952694;28;20218;-71
2023/01/09 12:36:07;;;;;;;4.57;1.30;;;;;;;;;;4947227;28;20226;-70
2023/01/09 12:38:39;;;;;;;5.85;1.48;;;;;;;;;;4946968;29;20241;-71
2023/01/09 12:41:07;;;;;;;6.78;1.90;;;;;;;;;;4954211;28;20215;-70
2023/01/09 12:43:51;;;;;;;5.53;1.55;;;;;;;;;;4950124;28;20231;-70
2023/01/09 12:46:18;;;;;;;5.65;1.58;;;;;;;;;;4969215;28;20268;-70
2023/01/09 12:48:50;;;;;;;5.10;1.50;;;;;;;;;;4973257;28;20206;-70
2023/01/09 12:51:17;;;;;;;8.52;2.13;;;;;;;;;;4973677;28;20752;-72
2023/01/09 12:53:46;;;;;;;7.95;1.65;;;;;;;;;;4973791;28;20759;-71
2023/01/09 12:56:19;;;;;;;7.05;1.70;;;;;;;;;;4959917;28;20839;-70
2023/01/09 12:58:47;;;;;;;5.40;1.77;;;;;;;;;;4961168;28;20216;-70
2023/01/09 13:01:14;;;;;;;5.18;1.23;;;;;;;;;;4972826;28;20221;-70
2023/01/09 13:03:39;;;;;;;5.88;1.50;;;;;;;;;;4973712;28;20238;-70
2023/01/09 13:06:05;;;;;;;6.35;1.52;;;;;;;;;;4967655;28;20740;-70
2023/01/09 13:08:35;;;;;;;4.13;1.40;;;;;;;;;;4954268;28;20313;-71
2023/01/09 13:11:03;;;;;;;5.25;1.50;;;;;;;;;;4954651;28;20274;-67
2023/01/09 13:13:37;;;;;;;6.35;1.67;;;;;;;;;;4959800;28;20228;-70
2023/01/09 13:16:05;;;;;;;7.35;1.52;;;;;;;;;;4962894;28;20225;-70
2023/01/09 13:18:33;;;;;;;4.07;1.35;;;;;;;;;;4973497;28;20744;-71
2023/01/09 13:20:58;;;;;;;5.13;1.45;;;;;;;;;;4972740;28;20216;-71
2023/01/09 13:23:30;;;;;;;6.68;1.50;;;;;;;;;;4973877;28;20222;-71
2023/01/09 13:25:56;;;;;;;5.43;1.40;;;;;;;;;;4972558;28;20209;-71
2023/01/09 13:28:24;;;;;;;3.75;1.40;;;;;;;;;;4971868;28;20216;-71
2023/01/09 13:30:49;;;;;;;6.53;1.80;;;;;;;;;;4966950;28;20221;-71
2023/01/09 13:33:17;;;;;;;6.03;1.90;;;;;;;;;;4975093;28;20562;-71
2023/01/09 13:35:47;;;;;;;4.72;1.48;;;;;;;;;;4962042;28;20292;-71
2023/01/09 13:38:15;;;;;;;4.70;1.40;;;;;;;;;;4973946;28;20296;-71
2023/01/09 13:40:40;;;;;;;4.90;1.00;;;;;;;;;;4969842;28;20198;-71
2023/01/09 13:43:08;;;;;;;4.85;1.15;;;;;;;;;;4954356;28;20223;-71
2023/01/09 13:45:35;;;;;;;5.07;1.30;;;;;;;;;;4953704;28;20219;-72
2023/01/09 13:48:18;;;;;;;4.80;1.40;;;;;;;;;;4952292;28;20254;-69
2023/01/09 13:50:43;;;;;;;6.35;3.20;;;;;;;;;;4956618;28;20321;-70
2023/01/09 13:53:18;;;;;;;5.22;2.10;;;;;;;;;;4973460;28;20755;-73
2023/01/09 13:55:55;;;;;;;8.80;2.08;;;;;;;;;;4972757;28;20209;-64
2023/01/09 13:58:21;;;;;;;5.20;1.95;;;;;;;;;;4972122;28;20229;-65
2023/01/09 14:00:46;;;;;;;8.25;2.53;;;;;;;;;;4967122;28;20218;-65
2023/01/09 14:03:19;;;;;;;6.47;2.20;;;;;;;;;;4952830;28;20610;-65
2023/01/09 14:05:45;;;;;;;6.57;1.90;;;;;;;;;;4957293;28;20672;-64
2023/01/09 14:08:10;;;;;;;6.75;2.20;;;;;;;;;;4972706;28;20217;-64
2023/01/09 14:10:36;;;;;;;6.13;2.10;;;;;;;;;;4972171;28;20209;-65
2023/01/09 14:13:05;;;;;;;8.57;1.80;;;;;;;;;;4966656;28;20206;-64
2023/01/09 14:15:35;;;;;;;6.32;2.00;;;;;;;;;;4952661;28;20229;-65
2023/01/09 14:18:01;;;;;;;7.00;1.80;;;;;;;;;;4954074;28;20245;-65
2023/01/09 14:20:29;;;;;;;6.15;2.00;;;;;;;;;;4954507;28;20242;-65
2023/01/09 14:22:55;;;;;;;6.35;2.05;;;;;;;;;;4952419;28;20241;-65
2023/01/09 14:25:21;;;;;;;6.00;1.70;;;;;;;;;;4953757;28;20210;-65
2023/01/09 14:27:52;;;;;;;6.60;1.95;;;;;;;;;;4953063;28;20207;-65
2023/01/09 14:30:25;;;;;;;6.13;2.10;;;;;;;;;;4953304;28;20246;-65
2023/01/09 14:32:59;;;;;;;8.18;2.08;;;;;;;;;;4954072;28;20215;-65
2023/01/09 14:35:26;;;;;;;6.97;1.90;;;;;;;;;;4943997;28;20227;-65
2023/01/09 14:37:58;;;;;;;5.32;1.70;;;;;;;;;;4935315;29;20744;-69
2023/01/09 14:40:23;;;;;;;7.22;2.05;;;;;;;;;;4929709;28;20304;-64
2023/01/09 14:42:51;;;;;;;5.80;1.80;;;;;;;;;;4952366;28;20620;-65
2023/01/09 14:45:18;;;;;;;4.78;1.55;;;;;;;;;;4935173;28;20210;-64
2023/01/09 14:47:44;;;;;;;8.90;1.80;;;;;;;;;;4936972;29;20260;-64
2023/01/09 14:50:10;;;;;;;5.78;1.58;;;;;;;;;;4934404;28;20238;-64
2023/01/09 14:52:37;;;;;;;5.88;1.45;;;;;;;;;;4952937;28;20293;-64
2023/01/09 14:55:05;;;;;;;4.85;1.38;;;;;;;;;;4953342;28;20302;-64
2023/01/09 14:57:31;;;;;;;3.80;1.27;;;;;;;;;;4930013;28;20329;-64
2023/01/09 15:00:01;;;;;;;9.02;2.17;;;;;;;;;;4932278;28;20217;-64